Time;durP1;ratioP1;P1;durP2;ratioP2;P2;SDS_P1;SDS_P2;PMS_P1;PMS_P2;Temp;Humidity;BMP_temperature;BMP_pressure;BME280_temperature;BME280_humidity;BME280_pressure;Samples;Min_cycle;Max_cycle;Signal;HPM_P1;HPM_P2
2023/06/13 00:04:57;;;;;;;8.60;2.50;;;;;;;13.99;56.53;99138.41;223705;182;145285;-67
2023/06/13 00:10:00;;;;;;;7.90;2.80;;;;;;;13.94;56.44;99138.05;223669;183;138645;-66
2023/06/13 00:15:05;;;;;;;4.90;2.50;;;;;;;13.90;56.63;99131.61;223828;182;137124;-66
2023/06/13 00:20:09;;;;;;;5.50;2.80;;;;;;;13.85;56.76;99130.67;223792;182;143778;-64
2023/06/13 00:25:12;;;;;;;7.00;2.70;;;;;;;13.82;56.83;99126.36;223744;183;138770;-65
2023/06/13 00:30:16;;;;;;;8.70;3.10;;;;;;;13.78;56.89;99119.69;223776;183;136421;-67
2023/06/13 00:35:20;;;;;;;6.30;2.80;;;;;;;13.74;57.23;99116.39;223768;183;144344;-66
2023/06/13 00:40:24;;;;;;;5.50;3.00;;;;;;;13.67;57.42;99115.28;223814;182;139123;-64
2023/06/13 00:45:36;;;;;;;5.70;2.90;;;;;;;13.63;57.60;99112.75;223829;183;136555;-64
2023/06/13 00:50:40;;;;;;;4.80;3.10;;;;;;;13.58;57.90;99111.00;223694;183;145771;-63
2023/06/13 00:55:46;;;;;;;7.50;3.60;;;;;;;13.62;57.85;99104.81;223735;183;138468;-65
2023/06/13 01:00:52;;;;;;;5.70;3.10;;;;;;;13.58;57.96;99107.63;223801;182;137185;-65
2023/06/13 01:05:56;;;;;;;4.20;3.00;;;;;;;13.48;58.22;99099.17;223722;183;145186;-64
2023/06/13 01:11:13;;;;;;;6.20;3.00;;;;;;;13.43;58.44;99096.17;223637;184;138892;-68
2023/06/13 01:16:33;;;;;;;6.40;3.00;;;;;;;13.40;58.50;99090.67;223737;183;138472;-65
2023/06/13 01:21:39;;;;;;;6.50;3.40;;;;;;;13.34;58.78;99089.59;223850;183;145320;-64
2023/06/13 01:26:45;;;;;;;;;;;;;;;13.28;58.90;99090.15;223730;183;140135;-65
2023/06/13 01:31:56;;;;;;;6.50;2.90;;;;;;;13.23;59.00;99085.85;223799;183;129163;-65
2023/06/13 01:37:00;;;;;;;5.20;3.00;;;;;;;13.18;59.12;99091.04;223762;183;145813;-65
2023/06/13 01:42:06;;;;;;;6.10;3.00;;;;;;;13.14;59.25;99087.92;223792;182;138269;-67
2023/06/13 01:47:22;;;;;;;5.80;2.90;;;;;;;13.10;59.47;99086.64;223764;183;137279;-66
2023/06/13 01:52:46;;;;;;;4.10;2.90;;;;;;;13.07;59.48;99085.27;223865;183;146011;-66
2023/06/13 01:57:56;;;;;;;5.10;3.20;;;;;;;13.02;59.60;99088.60;223767;183;138464;-67
2023/06/13 02:03:03;;;;;;;4.70;3.30;;;;;;;12.98;59.77;99083.21;223745;183;136927;-69
2023/06/13 02:08:07;;;;;;;4.80;2.80;;;;;;;12.94;59.85;99081.02;223734;182;145433;-67
2023/06/13 02:13:11;;;;;;;5.10;3.10;;;;;;;12.89;60.04;99076.20;223769;181;138437;-66
2023/06/13 02:18:15;;;;;;;4.70;2.80;;;;;;;12.83;60.20;99076.41;223737;180;136783;-68
2023/06/13 02:23:18;;;;;;;3.60;2.80;;;;;;;12.78;60.28;99080.02;223821;181;146180;-67
2023/06/13 02:28:21;;;;;;;4.50;2.80;;;;;;;12.72;60.46;99079.33;223848;181;138302;-65
2023/06/13 02:33:25;;;;;;;6.90;3.10;;;;;;;12.68;60.62;99084.42;223814;181;136961;-65
2023/06/13 02:38:28;;;;;;;6.60;3.30;;;;;;;12.64;60.65;99086.64;223783;181;145208;-68
2023/06/13 02:43:31;;;;;;;4.10;2.80;;;;;;;12.60;60.77;99087.51;223711;181;138914;-68
2023/06/13 02:48:34;;;;;;;5.60;3.10;;;;;;;12.57;60.84;99087.53;223759;181;138979;-68
2023/06/13 02:53:38;;;;;;;6.00;3.10;;;;;;;12.52;60.99;99085.14;223808;181;145785;-68
2023/06/13 02:58:41;;;;;;;4.10;2.70;;;;;;;12.47;61.08;99084.98;223843;181;139559;-63
2023/06/13 03:03:47;;;;;;;3.80;2.90;;;;;;;12.44;61.23;99080.95;223907;180;137375;-64
2023/06/13 03:08:52;;;;;;;5.70;3.10;;;;;;;12.37;61.24;99072.48;223785;180;145123;-64
2023/06/13 03:13:56;;;;;;;4.40;2.90;;;;;;;12.35;61.43;99075.10;223831;181;138919;-64
2023/06/13 03:19:00;;;;;;;8.10;3.10;;;;;;;12.35;61.54;99077.70;223810;181;137558;-62
2023/06/13 03:24:06;;;;;;;7.50;3.30;;;;;;;12.34;61.67;99085.17;223823;180;145124;-64
2023/06/13 03:29:10;;;;;;;5.10;3.30;;;;;;;12.34;61.63;99083.23;223760;181;138612;-63
2023/06/13 03:34:13;;;;;;;8.00;3.30;;;;;;;12.34;61.63;99080.05;223818;181;136889;-62
2023/06/13 03:39:17;;;;;;;5.80;2.80;;;;;;;12.33;61.56;99071.94;223888;181;145430;-65
2023/06/13 03:44:21;;;;;;;7.10;3.50;;;;;;;12.31;61.72;99082.17;223795;181;140016;-63
2023/06/13 03:49:25;;;;;;;5.30;3.10;;;;;;;12.33;61.76;99079.92;223842;180;136994;-63
2023/06/13 03:54:29;;;;;;;6.90;3.00;;;;;;;12.37;61.85;99086.02;223852;181;145131;-63
2023/06/13 03:59:33;;;;;;;4.80;3.10;;;;;;;12.42;61.97;99078.75;223982;181;138290;-64
2023/06/13 04:04:37;;;;;;;7.40;2.90;;;;;;;12.52;62.01;99079.51;223809;181;136650;-65
2023/06/13 04:09:42;;;;;;;5.40;3.50;;;;;;;12.61;62.02;99076.92;223900;181;145388;-65
2023/06/13 04:14:46;;;;;;;7.60;3.50;;;;;;;12.70;61.98;99077.36;223842;181;138783;-65
2023/06/13 04:19:49;;;;;;;6.80;3.40;;;;;;;12.82;62.04;99080.38;223796;181;136104;-65
2023/06/13 04:24:53;;;;;;;7.10;3.00;;;;;;;12.95;61.67;99080.73;223891;181;145930;-66
2023/06/13 04:29:56;;;;;;;5.60;3.30;;;;;;;12.98;61.69;99076.77;223878;181;138306;-66
2023/06/13 04:35:00;;;;;;;10.10;2.90;;;;;;;13.09;61.75;99070.35;223883;181;136603;-67
2023/06/13 04:40:05;;;;;;;5.80;2.70;;;;;;;13.17;61.80;99071.65;223775;181;145279;-66
2023/06/13 04:45:10;;;;;;;9.30;2.90;;;;;;;13.29;61.79;99071.42;223795;181;139141;-67
2023/06/13 04:50:15;;;;;;;7.60;2.50;;;;;;;13.39;61.71;99065.13;223867;181;136840;-65
2023/06/13 04:55:22;;;;;;;3.30;2.60;;;;;;;13.53;61.47;99069.27;223943;181;145172;-65
2023/06/13 05:00:26;;;;;;;4.10;2.70;;;;;;;13.68;61.08;99071.22;223850;181;139238;-65
2023/06/13 05:05:29;;;;;;;7.70;3.10;;;;;;;13.74;60.98;99074.98;223824;181;136815;-65
2023/06/13 05:10:33;;;;;;;7.00;2.80;;;;;;;13.79;60.82;99077.19;223884;181;145839;-64
2023/06/13 05:15:47;;;;;;;7.50;2.80;;;;;;;13.82;60.85;99073.52;223879;181;138389;-62
2023/06/13 05:20:50;;;;;;;4.70;2.80;;;;;;;13.77;60.72;99073.39;223826;181;136339;-63
2023/06/13 05:25:54;;;;;;;6.10;3.20;;;;;;;13.76;60.89;99073.45;223921;180;145254;-64
2023/06/13 05:30:58;;;;;;;5.30;2.40;;;;;;;13.73;60.83;99069.73;223857;181;138460;-62
2023/06/13 05:36:02;;;;;;;5.50;3.00;;;;;;;13.70;61.10;99069.45;223904;181;137021;-63
2023/06/13 05:41:05;;;;;;;7.00;2.90;;;;;;;13.71;61.12;99072.91;223926;181;145036;-63
2023/06/13 05:50:43;;;;;;;4.30;2.40;;;;;;;13.88;61.39;99068.05;219780;192;666765;-64
2023/06/13 05:55:51;;;;;;;5.60;2.70;;;;;;;13.93;61.41;99070.00;223798;182;136094;-63
2023/06/13 06:00:57;;;;;;;3.50;2.50;;;;;;;14.01;61.50;99075.55;223668;182;144109;-66
2023/06/13 06:06:00;;;;;;;4.40;2.30;;;;;;;14.11;61.54;99068.28;223816;182;138883;-66
2023/06/13 06:11:05;;;;;;;4.80;2.80;;;;;;;14.28;61.37;99067.91;223845;182;138135;-68
2023/06/13 06:16:09;;;;;;;64.10;49.40;;;;;;;14.45;61.43;99063.02;223824;182;145010;-69
2023/06/13 06:21:12;;;;;;;4.40;3.30;;;;;;;14.75;61.66;99063.20;223921;181;139123;-62
2023/06/13 06:26:15;;;;;;;5.50;2.70;;;;;;;15.24;60.92;99056.43;224090;180;136538;-65
2023/06/13 06:31:19;;;;;;;65.70;47.90;;;;;;;15.63;60.51;99053.59;224107;180;144035;-66
2023/06/13 06:36:24;;;;;;;6.60;5.20;;;;;;;16.36;58.67;99051.27;223961;181;139628;-66
2023/06/13 06:41:28;;;;;;;5.90;4.50;;;;;;;16.54;56.72;99051.67;223935;181;136878;-65
2023/06/13 06:46:31;;;;;;;19.40;15.30;;;;;;;16.40;55.79;99053.91;224039;180;146043;-66
2023/06/13 06:51:36;;;;;;;4.30;2.50;;;;;;;16.27;55.25;99056.26;223886;180;138856;-66
2023/06/13 06:56:43;;;;;;;117.20;87.30;;;;;;;16.10;55.35;99056.29;223780;181;137248;-64
2023/06/13 07:01:53;;;;;;;4.30;2.50;;;;;;;16.07;55.02;99051.88;223791;181;145592;-70
2023/06/13 07:06:56;;;;;;;7.00;2.00;;;;;;;16.14;54.25;99045.92;223834;181;138839;-68
2023/06/13 07:12:00;;;;;;;5.60;1.70;;;;;;;16.15;54.34;99046.95;223745;181;136376;-67
2023/06/13 07:17:03;;;;;;;2.90;1.80;;;;;;;16.15;54.72;99043.56;223826;181;145162;-66
2023/06/13 07:22:06;;;;;;;1.40;1.10;;;;;;;16.14;53.80;99047.96;223728;181;138578;-70
2023/06/13 07:27:11;;;;;;;2.00;1.40;;;;;;;16.10;53.18;99052.02;223854;181;137155;-65
2023/06/13 07:32:14;;;;;;;35.00;22.70;;;;;;;16.04;53.27;99045.48;223794;181;145838;-64
2023/06/13 07:37:19;;;;;;;43.20;31.40;;;;;;;16.10;53.87;99038.07;223795;181;138537;-67
2023/06/13 07:42:22;;;;;;;5.20;2.20;;;;;;;16.26;53.76;99030.41;223782;181;137686;-65
2023/06/13 07:53:02;;;;;;;4.60;1.80;;;;;;;16.46;52.81;99032.68;221779;193;687338;-68
2023/06/13 07:58:06;;;;;;;2.50;1.60;;;;;;;16.32;52.40;99034.17;223759;182;136242;-69
2023/06/13 08:03:11;;;;;;;2.50;1.70;;;;;;;16.20;52.86;99035.91;223649;182;143548;-68
2023/06/13 08:51:46;;;;;;;5.90;1.60;;;;;;;16.76;51.34;99040.21;221869;193;665510;-67
2023/06/13 08:56:51;;;;;;;2.70;1.50;;;;;;;16.76;51.03;99040.76;223647;185;136355;-66
2023/06/13 09:01:56;;;;;;;2.30;1.20;;;;;;;16.65;50.92;99041.77;223640;183;144201;-68
2023/06/13 09:07:01;;;;;;;1.20;1.10;;;;;;;16.53;50.58;99051.19;223745;183;138382;-68
2023/06/13 09:12:06;;;;;;;2.60;1.30;;;;;;;16.39;50.36;99050.42;223768;183;135949;-68
2023/06/13 09:17:11;;;;;;;2.90;1.00;;;;;;;16.42;50.92;99056.08;223741;183;143856;-69
2023/06/13 09:22:17;;;;;;;3.20;1.10;;;;;;;16.44;50.58;99053.44;223804;183;139272;-68
2023/06/13 09:27:21;;;;;;;;;;;;;;;16.41;50.45;99052.64;223734;183;136176;-68
2023/06/13 09:32:24;;;;;;;6.80;3.10;;;;;;;16.47;50.96;99048.15;223789;182;143222;-69
2023/06/13 09:37:28;;;;;;;3.90;1.50;;;;;;;16.64;50.52;99038.10;223691;182;138388;-66
2023/06/13 09:42:31;;;;;;;6.00;1.30;;;;;;;16.86;50.86;99031.19;223675;183;137289;-68
2023/06/13 09:47:37;;;;;;;1.80;1.30;;;;;;;17.02;50.25;99027.41;223696;183;145739;-66
2023/06/13 09:52:43;;;;;;;2.70;1.20;;;;;;;17.11;48.72;99028.41;223524;183;138126;-65
2023/06/13 09:57:52;;;;;;;2.90;1.30;;;;;;;17.12;49.16;99025.93;223738;182;136489;-69
2023/06/13 10:02:59;;;;;;;2.30;1.20;;;;;;;17.21;48.92;99023.50;223705;182;145738;-66
2023/06/13 10:08:17;;;;;;;3.30;1.20;;;;;;;17.39;48.45;99020.53;223778;182;138139;-67
2023/06/13 10:13:26;;;;;;;5.80;3.90;;;;;;;17.63;48.12;99014.70;223733;181;258206;-63
2023/06/13 10:18:35;;;;;;;2.80;1.80;;;;;;;18.04;48.46;99008.65;223809;182;145273;-63
2023/06/13 10:23:49;;;;;;;8.70;1.30;;;;;;;18.41;47.11;99004.57;223761;182;138886;-63
2023/06/13 10:29:44;;;;;;;2.90;1.20;;;;;;;18.61;45.82;98998.38;223765;182;136435;-65
2023/06/13 10:35:23;;;;;;;14.90;12.30;;;;;;;18.66;45.83;98995.00;223621;182;146500;-66
2023/06/13 10:40:42;;;;;;;6.60;4.70;;;;;;;18.96;45.18;98988.41;223682;182;138379;-64
2023/06/13 10:45:46;;;;;;;2.20;1.20;;;;;;;19.22;44.41;98982.21;223723;182;136350;-68
2023/06/13 10:50:50;;;;;;;1.70;1.10;;;;;;;19.12;44.07;98978.91;223692;182;146337;-65
2023/06/13 10:56:01;;;;;;;246.20;186.10;;;;;;;18.93;43.65;98984.01;223598;182;139094;-64
2023/06/13 11:01:37;;;;;;;10.10;8.10;;;;;;;18.84;44.30;98981.80;223618;182;140410;-64
2023/06/13 11:06:47;;;;;;;4.40;3.20;;;;;;;18.86;44.26;98981.41;223660;183;145391;-65
2023/06/13 11:11:57;;;;;;;3.50;2.20;;;;;;;18.85;44.41;98980.83;223759;182;140074;-65
2023/06/13 11:17:01;;;;;;;1.70;1.60;;;;;;;19.01;44.39;98978.16;223690;182;137418;-64
2023/06/13 11:22:12;;;;;;;;;;;;;;;19.12;44.40;98973.61;223685;182;145347;-63
2023/06/13 11:27:16;;;;;;;1.30;1.20;;;;;;;19.44;43.79;98974.40;223744;182;139359;-64
2023/06/13 11:32:22;;;;;;;6.70;1.30;;;;;;;19.36;42.76;98972.59;223750;182;137291;-64
2023/06/13 11:37:36;;;;;;;2.70;1.60;;;;;;;19.26;43.19;98978.25;223656;182;145246;-63
2023/06/13 11:42:40;;;;;;;1.90;1.10;;;;;;;19.24;43.33;98979.50;223669;181;138438;-64
2023/06/13 11:47:44;;;;;;;;;;;;;;;19.19;43.31;98979.85;223763;182;137012;-64
2023/06/13 11:53:05;;;;;;;2.60;1.50;;;;;;;19.13;43.54;98976.80;223712;182;145747;-63
2023/06/13 11:58:08;;;;;;;24.20;20.30;;;;;;;19.07;43.14;98971.77;223576;182;138552;-65
2023/06/13 12:03:12;;;;;;;25.40;18.40;;;;;;;18.95;42.67;98968.14;223579;182;137854;-68
2023/06/13 12:08:16;;;;;;;3.90;2.70;;;;;;;18.92;42.60;98968.85;223706;182;144952;-67
2023/06/13 12:13:20;;;;;;;5.20;2.60;;;;;;;18.86;42.88;98971.17;223726;182;138137;-69
2023/06/13 12:18:23;;;;;;;4.00;2.10;;;;;;;18.91;42.79;98968.36;223697;182;137045;-70
2023/06/13 12:23:27;;;;;;;2.70;1.80;;;;;;;18.93;42.67;98961.68;223770;182;145328;-67
2023/06/13 12:28:33;;;;;;;3.10;2.30;;;;;;;18.86;42.11;98959.31;223683;182;138989;-65
2023/06/13 12:33:37;;;;;;;22.00;19.40;;;;;;;18.80;43.01;98959.50;223572;182;136618;-67
2023/06/13 12:38:41;;;;;;;3.20;2.50;;;;;;;18.84;43.07;98958.58;223643;182;145098;-67
2023/06/13 12:43:47;;;;;;;2.90;2.60;;;;;;;18.94;42.49;98957.33;223665;182;138427;-68
2023/06/13 12:48:51;;;;;;;2.60;1.90;;;;;;;19.02;42.58;98952.02;223771;182;136046;-67
2023/06/13 12:54:18;;;;;;;2.20;1.90;;;;;;;19.17;42.33;98950.89;223609;182;145435;-68
2023/06/13 12:59:30;;;;;;;1.90;1.70;;;;;;;19.21;42.22;98951.21;223749;181;138726;-68
2023/06/13 13:04:35;;;;;;;5.00;2.10;;;;;;;19.28;41.84;98946.36;223794;182;137993;-69
2023/06/13 13:09:43;;;;;;;3.10;2.00;;;;;;;19.33;41.49;98944.78;223757;182;146828;-68
2023/06/13 13:14:46;;;;;;;194.10;123.40;;;;;;;19.26;41.37;98936.66;223719;181;138268;-67
2023/06/13 13:19:53;;;;;;;13.40;9.90;;;;;;;19.29;41.92;98930.82;223722;182;137664;-64
2023/06/13 13:24:56;;;;;;;3.70;3.10;;;;;;;19.27;42.20;98927.05;223765;182;145468;-64
2023/06/13 13:29:59;;;;;;;4.60;2.30;;;;;;;19.29;42.08;98919.60;223748;182;138085;-64
2023/06/13 13:35:04;;;;;;;2.60;1.70;;;;;;;19.44;42.39;98920.45;223679;181;137465;-66
2023/06/13 13:40:08;;;;;;;3.00;1.40;;;;;;;19.57;41.99;98921.10;223648;181;145303;-65
2023/06/13 13:45:12;;;;;;;2.10;1.70;;;;;;;19.45;41.81;98927.20;223668;181;138191;-67
2023/06/13 13:50:16;;;;;;;2.60;1.50;;;;;;;19.32;42.11;98930.08;223749;182;136753;-67
2023/06/13 13:55:20;;;;;;;2.70;1.30;;;;;;;19.27;42.38;98928.61;223611;182;146669;-66
2023/06/13 14:00:23;;;;;;;1.70;1.30;;;;;;;19.29;42.64;98925.73;223640;183;140129;-64
2023/06/13 14:05:29;;;;;;;5.00;1.20;;;;;;;19.29;42.16;98923.55;223811;181;136860;-65
2023/06/13 14:10:32;;;;;;;3.20;1.70;;;;;;;19.35;42.28;98927.52;223638;181;145913;-69
2023/06/13 14:15:36;;;;;;;2.80;1.10;;;;;;;19.40;42.39;98931.34;223740;181;138421;-69
2023/06/13 14:20:39;;;;;;;3.30;1.30;;;;;;;19.30;42.06;98929.11;223769;182;137459;-68
2023/06/13 14:25:51;;;;;;;12.90;7.40;;;;;;;19.25;42.60;98920.02;223724;182;145418;-71
2023/06/13 14:30:54;;;;;;;5.60;1.70;;;;;;;19.45;43.61;98922.00;223691;181;138512;-69
2023/06/13 14:35:57;;;;;;;3.80;1.30;;;;;;;19.60;43.20;98922.48;223684;181;136340;-68
2023/06/13 14:41:00;;;;;;;1.80;1.10;;;;;;;19.82;43.05;98921.64;223619;181;147229;-66
2023/06/13 14:50:51;;;;;;;3.40;2.00;;;;;;;19.81;45.10;98927.85;221451;193;676188;-65
2023/06/13 14:55:55;;;;;;;4.70;1.60;;;;;;;19.81;46.90;98925.92;223491;184;137337;-70
2023/06/13 15:00:59;;;;;;;70.80;57.60;;;;;;;19.69;44.59;98923.66;223489;183;143455;-69
2023/06/13 15:06:02;;;;;;;3.40;2.60;;;;;;;19.48;43.58;98922.44;223530;183;140568;-70
2023/06/13 15:11:09;;;;;;;7.10;4.50;;;;;;;19.38;43.53;98915.80;223744;181;136965;-68
2023/06/13 15:16:12;;;;;;;6.00;2.90;;;;;;;19.43;44.82;98917.29;223762;180;144264;-66
2023/06/13 15:21:16;;;;;;;6.00;2.20;;;;;;;19.51;44.77;98917.81;223817;181;139210;-67
2023/06/13 15:26:19;;;;;;;22.00;17.10;;;;;;;19.54;45.02;98916.38;223859;181;137582;-67
2023/06/13 15:31:25;;;;;;;4.20;2.30;;;;;;;19.57;44.12;98918.80;223744;181;142720;-68
2023/06/13 15:36:29;;;;;;;10.90;4.00;;;;;;;19.51;45.09;98915.65;223811;181;138608;-68
2023/06/13 15:41:36;;;;;;;15.10;6.70;;;;;;;19.53;45.84;98913.77;223743;181;136934;-68
2023/06/13 15:46:40;;;;;;;6.80;2.20;;;;;;;19.66;47.84;98916.65;223820;181;144924;-68
2023/06/13 15:51:44;;;;;;;14.50;3.60;;;;;;;19.74;47.31;98915.43;223717;182;138825;-67
2023/06/13 15:56:47;;;;;;;3.20;1.20;;;;;;;19.78;47.53;98914.30;223669;181;138907;-68
2023/06/13 16:01:51;;;;;;;6.60;2.70;;;;;;;19.66;46.51;98918.27;223688;182;146310;-68
2023/06/13 16:06:54;;;;;;;5.00;2.00;;;;;;;19.66;47.24;98915.95;223703;182;138440;-67
2023/06/13 16:11:58;;;;;;;6.90;2.40;;;;;;;19.81;47.61;98924.30;223723;181;139258;-68
2023/06/13 16:17:01;;;;;;;4.00;2.10;;;;;;;19.94;46.82;98925.48;223722;181;146307;-67
2023/06/13 16:22:05;;;;;;;9.40;3.70;;;;;;;19.98;46.13;98928.11;223644;178;138564;-66
2023/06/13 16:27:08;;;;;;;7.80;1.90;;;;;;;19.98;47.11;98929.96;223721;181;136561;-66
2023/06/13 16:32:12;;;;;;;31.20;25.40;;;;;;;19.95;45.65;98930.96;223750;181;145375;-68
2023/06/13 16:37:15;;;;;;;5.60;2.70;;;;;;;19.65;44.94;98933.64;223624;181;138254;-69
2023/06/13 16:42:18;;;;;;;4.60;1.60;;;;;;;19.35;45.19;98933.04;223731;182;136254;-67
2023/06/13 16:47:22;;;;;;;3.00;1.60;;;;;;;19.14;45.48;98929.02;223755;181;145119;-65
2023/06/13 16:52:26;;;;;;;3.10;1.70;;;;;;;18.96;46.01;98928.88;223595;181;139983;-66
2023/06/13 16:57:30;;;;;;;3.90;1.70;;;;;;;18.73;46.67;98928.93;223765;181;137355;-66
2023/06/13 17:02:33;;;;;;;3.20;1.90;;;;;;;18.59;46.93;98929.35;223684;181;145071;-67
2023/06/13 17:07:41;;;;;;;3.40;1.80;;;;;;;18.43;47.15;98931.84;223674;181;139131;-67
2023/06/13 17:12:47;;;;;;;46.30;32.50;;;;;;;18.28;47.45;98928.99;223773;181;137034;-64
2023/06/13 17:17:53;;;;;;;5.70;4.20;;;;;;;18.19;48.24;98922.58;223647;182;145046;-65
2023/06/13 17:22:56;;;;;;;37.40;25.90;;;;;;;18.13;49.06;98924.06;223615;181;138459;-66
2023/06/13 17:28:00;;;;;;;7.00;4.60;;;;;;;18.36;50.25;98920.27;223733;182;137223;-66
2023/06/13 17:33:05;;;;;;;9.90;3.90;;;;;;;18.42;50.07;98924.90;223776;181;145468;-67
2023/06/13 17:38:08;;;;;;;3.70;2.80;;;;;;;18.47;49.29;98922.28;223596;181;139171;-67
2023/06/13 17:43:12;;;;;;;3.90;2.70;;;;;;;18.22;49.12;98924.48;223779;181;136397;-68
2023/06/13 17:48:15;;;;;;;3.40;2.30;;;;;;;18.00;49.40;98919.75;223699;181;145466;-66
2023/06/13 17:53:18;;;;;;;421.20;320.10;;;;;;;17.81;49.99;98923.77;223710;181;138817;-67
2023/06/13 17:58:30;;;;;;;16.60;11.90;;;;;;;17.70;50.51;98925.23;223610;182;137433;-67
2023/06/13 18:03:35;;;;;;;5.90;3.80;;;;;;;17.62;50.65;98920.98;223689;181;147370;-66
2023/06/13 18:08:40;;;;;;;;;;;;;;;17.54;50.76;98918.52;223689;181;138407;-66
2023/06/13 18:13:44;;;;;;;5.30;3.40;;;;;;;17.42;50.69;98921.23;223835;181;130373;-65
2023/06/13 18:18:47;;;;;;;9.20;5.00;;;;;;;17.42;51.94;98929.79;223612;181;146003;-66
2023/06/13 18:23:50;;;;;;;6.50;3.30;;;;;;;17.75;51.67;98928.72;223695;182;138304;-67
2023/06/13 18:28:54;;;;;;;130.20;96.30;;;;;;;17.81;50.53;98928.15;223630;181;137174;-66
2023/06/13 18:33:58;;;;;;;9.40;7.50;;;;;;;17.44;51.35;98931.43;223764;181;145399;-67
2023/06/13 18:39:03;;;;;;;9.90;3.30;;;;;;;17.16;52.17;98935.22;223684;181;140010;-65
2023/06/13 18:44:10;;;;;;;75.50;58.90;;;;;;;16.98;52.75;98932.20;223716;181;137009;-65
2023/06/13 18:49:14;;;;;;;12.00;7.00;;;;;;;16.89;53.35;98932.36;223676;181;145889;-66
2023/06/13 18:54:18;;;;;;;18.20;13.00;;;;;;;16.78;54.02;98935.41;223658;182;137735;-65
2023/06/13 18:59:21;;;;;;;5.10;4.10;;;;;;;16.97;54.72;98940.95;223617;182;136656;-64
2023/06/13 19:04:26;;;;;;;143.70;101.70;;;;;;;17.19;54.11;98946.23;223762;181;145277;-66
2023/06/13 19:09:31;;;;;;;99.40;82.40;;;;;;;16.99;53.99;98945.96;223759;181;139835;-65
2023/06/13 19:14:35;;;;;;;10.30;6.40;;;;;;;16.70;54.70;98947.61;223766;181;137934;-65
2023/06/13 19:19:39;;;;;;;8.70;6.20;;;;;;;16.60;56.69;98952.11;223868;181;145163;-65
2023/06/13 19:24:43;;;;;;;7.70;3.60;;;;;;;17.01;55.94;98949.54;223718;182;138569;-65
2023/06/13 19:29:47;;;;;;;4.40;3.40;;;;;;;16.71;55.99;98954.48;223750;182;137573;-66
2023/06/13 19:34:52;;;;;;;7.80;4.20;;;;;;;16.47;56.53;98957.88;223743;181;146222;-65
2023/06/13 19:39:55;;;;;;;121.40;91.70;;;;;;;16.32;57.18;98962.06;223673;181;139020;-65
2023/06/13 19:45:01;;;;;;;8.40;6.70;;;;;;;16.22;57.73;98965.03;223671;181;137812;-67
2023/06/13 19:50:06;;;;;;;7.80;5.00;;;;;;;16.09;58.21;98963.84;223686;181;145288;-66
2023/06/13 19:55:12;;;;;;;8.70;5.70;;;;;;;15.93;58.70;98969.73;223773;182;139615;-62
2023/06/13 20:00:17;;;;;;;8.40;5.30;;;;;;;15.77;59.40;98967.67;223633;183;136505;-66
2023/06/13 20:05:22;;;;;;;9.00;5.50;;;;;;;15.63;59.91;98967.17;223716;182;145721;-65
2023/06/13 20:10:30;;;;;;;8.30;6.30;;;;;;;15.55;60.52;98968.93;223642;182;138312;-64
2023/06/13 20:15:41;;;;;;;11.50;6.20;;;;;;;15.42;60.93;98969.64;223638;183;136984;-65
2023/06/13 22:25:29;;;;;;;13.30;7.90;;;;;;;14.38;66.87;98971.48;220877;192;666311;-65
2023/06/13 22:30:32;;;;;;;12.40;7.00;;;;;;;14.43;66.95;98964.98;223807;182;137276;-66
2023/06/13 22:35:38;;;;;;;10.80;7.10;;;;;;;14.47;66.83;98958.07;223758;182;143611;-65
2023/06/13 22:40:41;;;;;;;;;;;;;;;14.50;66.91;98952.53;223804;183;138396;-64
2023/06/13 22:45:44;;;;;;;8.60;6.70;;;;;;;14.50;67.00;98949.64;223823;182;127174;-64
2023/06/13 22:50:48;;;;;;;9.70;5.50;;;;;;;14.48;67.02;98942.27;223672;183;146528;-65
2023/06/13 22:55:51;;;;;;;8.70;5.50;;;;;;;14.47;67.17;98943.80;223740;181;138425;-66
2023/06/13 23:00:55;;;;;;;8.40;6.20;;;;;;;14.45;67.29;98949.45;223712;181;136766;-65
2023/06/13 23:05:58;;;;;;;8.90;6.10;;;;;;;14.44;67.37;98947.05;223947;181;143353;-65
2023/06/13 23:11:01;;;;;;;7.70;4.90;;;;;;;14.44;67.55;98945.99;223849;182;139712;-64
2023/06/13 23:16:07;;;;;;;9.30;5.10;;;;;;;14.47;67.64;98948.27;223775;181;137364;-65
2023/06/13 23:21:11;;;;;;;7.70;5.70;;;;;;;14.54;67.70;98942.91;223837;181;144861;-64
2023/06/13 23:26:17;;;;;;;9.40;5.40;;;;;;;14.61;67.70;98936.96;223827;181;138921;-65
2023/06/13 23:31:20;;;;;;;7.10;5.60;;;;;;;14.70;67.60;98934.52;223777;182;136934;-65
2023/06/13 23:36:24;;;;;;;8.20;5.80;;;;;;;14.70;67.46;98933.65;223686;181;145848;-63
2023/06/13 23:41:28;;;;;;;7.20;5.80;;;;;;;14.68;67.62;98932.30;223734;181;138906;-64
2023/06/13 23:50:43;;;;;;;9.30;5.90;;;;;;;14.66;67.98;98920.71;221645;193;666702;-65
2023/06/13 23:55:46;;;;;;;7.80;6.00;;;;;;;14.62;68.21;98923.38;223676;183;138391;-64
